Wright Patterson Air Force Base Dayton US
ICAO: KFFO
IATA: FFO
Category: Large
Scheduled Services: No

Elevation: 823 ft
TransAlt. 18000 ft.

Airport Communications:
DAYTON APP/DEP:118.85
ATIS:124.475
GND:121.8
PMSV METRO:34.46
445AW AFRC COMD POST:34.94
PTD:122.85
PATTERSON TWR:126.9

KFFO Zoom In..

If Map Doesn't Load, Click Here

Runways:

(A) RW 05L length 12600 ft width 300 ft
ILS 109.70 / hdg 53

(B) RW 05R length 7000 ft width 150 ft
---- / hdg 53

(C) RW 23L length 7000 ft width 150 ft
---- / hdg 233

(D) RW 23R length 12600 ft width 300 ft
ILS 109.70 / hdg 233

Location; KFFO
Day. 23 / Time. 07.56 Zulu
* Altimeter: 30.14
* Temperature: 13° c. 55.4°f.
* Wind from: 030° Speed 03 kn.
Dewpoint: 11° c.
Visibility: 10 Statute Miles.
Clouds: Clear (automated report).

KFFO 230756Z AUTO 03003KT 10SM CLR 13/11 A3014 RMK AO2 SLP209 T01270108 $


Wind From 030°
Speed 03 kn.

 
 
jpsmedia.com for Web Design worldairports.se 2018   terms of use